Time;durP1;ratioP1;P1;durP2;ratioP2;P2;SDS_P1;SDS_P2;PMS_P1;PMS_P2;Temp;Humidity;BMP_temperature;BMP_pressure;BME280_temperature;BME280_humidity;BME280_pressure;Samples;Min_cycle;Max_cycle;Signal;HPM_P1;HPM_P2
2020/12/23 00:01:58;;;;;;;17.70;10.90;;;12.40;99.90;;;;;;5093503;28;20227;-70
2020/12/23 00:04:24;;;;;;;13.70;12.17;;;12.50;99.90;;;;;;5093725;28;20169;-70
2020/12/23 00:06:49;;;;;;;21.50;12.50;;;12.40;99.90;;;;;;5093418;28;20443;-69
2020/12/23 00:09:15;;;;;;;19.53;13.23;;;12.40;99.90;;;;;;5093633;28;20170;-69
2020/12/23 00:11:40;;;;;;;17.90;12.53;;;12.40;99.90;;;;;;5093383;28;20636;-69
2020/12/23 00:14:06;;;;;;;17.40;12.00;;;12.40;99.90;;;;;;5093286;28;20533;-69
2020/12/23 00:16:31;;;;;;;15.87;12.20;;;12.30;99.90;;;;;;5093435;28;20185;-69
2020/12/23 00:18:57;;;;;;;19.63;12.27;;;12.30;99.90;;;;;;5093417;28;20190;-68
2020/12/23 00:21:22;;;;;;;16.67;13.10;;;12.30;99.90;;;;;;5092929;28;20633;-69
2020/12/23 00:23:48;;;;;;;18.37;11.90;;;12.20;99.90;;;;;;5093133;28;20649;-69
2020/12/23 00:26:13;;;;;;;16.80;13.37;;;12.20;99.90;;;;;;5093344;28;20734;-68
2020/12/23 00:28:40;;;;;;;19.30;13.73;;;12.20;99.90;;;;;;5093096;28;20606;-68
2020/12/23 00:31:06;;;;;;;21.50;13.93;;;12.10;99.90;;;;;;5092597;28;20264;-70
2020/12/23 00:33:32;;;;;;;21.80;15.07;;;12.10;99.90;;;;;;5093059;28;20511;-71
2020/12/23 00:35:57;;;;;;;19.90;14.37;;;12.20;99.90;;;;;;5093004;28;20181;-71
2020/12/23 00:38:23;;;;;;;21.77;15.20;;;12.20;99.90;;;;;;5092939;28;20182;-71
2020/12/23 00:40:48;;;;;;;23.92;17.23;;;12.20;99.90;;;;;;5092117;28;20455;-69
2020/12/23 00:43:14;;;;;;;27.17;15.37;;;12.20;99.90;;;;;;5093051;28;20212;-69
2020/12/23 00:45:39;;;;;;;22.30;14.17;;;12.30;99.90;;;;;;5092818;28;20184;-68
2020/12/23 00:48:05;;;;;;;26.20;16.23;;;12.30;99.90;;;;;;5092962;28;20648;-69
2020/12/23 00:50:31;;;;;;;22.90;14.87;;;12.30;99.90;;;;;;5092700;28;20169;-68
2020/12/23 00:52:57;;;;;;;24.10;14.43;;;12.30;99.90;;;;;;5092671;28;20177;-69
2020/12/23 00:55:22;;;;;;;25.60;15.63;;;12.30;99.90;;;;;;5092832;28;20412;-69
2020/12/23 00:57:48;;;;;;;24.43;15.43;;;12.40;99.90;;;;;;5092533;28;20177;-69
2020/12/23 01:00:13;;;;;;;20.60;14.43;;;12.40;99.90;;;;;;5090997;28;20264;-72
2020/12/23 01:02:39;;;;;;;18.90;12.80;;;12.40;99.90;;;;;;5072426;28;20191;-70
2020/12/23 01:05:04;;;;;;;21.63;14.40;;;12.40;99.90;;;;;;5072546;28;20181;-70
2020/12/23 01:07:30;;;;;;;23.10;14.90;;;12.40;99.90;;;;;;5072261;28;20402;-70
2020/12/23 01:09:55;;;;;;;17.43;13.50;;;12.40;99.90;;;;;;5072298;28;20173;-70
2020/12/23 01:12:21;;;;;;;25.63;13.90;;;12.40;99.90;;;;;;5072458;28;20167;-69
2020/12/23 01:14:46;;;;;;;21.93;13.73;;;12.40;99.90;;;;;;5072219;28;20178;-69
2020/12/23 01:17:14;;;;;;;20.90;13.90;;;12.40;99.90;;;;;;5072431;28;20173;-69
2020/12/23 01:19:40;;;;;;;20.50;14.47;;;12.40;99.90;;;;;;5071732;28;20201;-69
2020/12/23 01:22:06;;;;;;;19.17;14.30;;;12.40;99.90;;;;;;5072887;28;20472;-69
2020/12/23 01:24:31;;;;;;;20.17;13.30;;;12.40;99.90;;;;;;5072949;28;20458;-69
2020/12/23 01:26:57;;;;;;;22.97;14.70;;;12.40;99.90;;;;;;5073044;28;20232;-70
2020/12/23 01:29:22;;;;;;;24.33;14.20;;;12.40;99.90;;;;;;5074172;28;20170;-69
2020/12/23 01:31:48;;;;;;;16.67;13.03;;;12.40;99.90;;;;;;5075288;28;20170;-69
2020/12/23 01:34:13;;;;;;;17.60;13.80;;;12.40;99.90;;;;;;5074984;28;20170;-69
2020/12/23 01:36:39;;;;;;;19.17;13.30;;;12.50;99.90;;;;;;5074515;28;20174;-69
2020/12/23 01:39:04;;;;;;;20.77;13.43;;;12.50;99.90;;;;;;5073092;28;20178;-68
2020/12/23 01:41:30;;;;;;;19.43;13.40;;;12.50;99.90;;;;;;5072889;28;20669;-67
2020/12/23 01:43:58;;;;;;;23.03;14.07;;;12.50;99.90;;;;;;5076655;28;20664;-67
2020/12/23 01:46:32;;;;;;;20.40;13.80;;;12.50;99.90;;;;;;5076884;28;20629;-67
2020/12/23 01:49:00;;;;;;;20.00;13.23;;;12.50;99.90;;;;;;5076820;28;20515;-69
2020/12/23 01:51:26;;;;;;;20.13;14.20;;;12.50;99.90;;;;;;5076031;28;20428;-68
2020/12/23 01:53:53;;;;;;;20.50;14.47;;;12.50;99.90;;;;;;5076066;28;20431;-65
2020/12/23 01:56:21;;;;;;;21.70;14.27;;;12.50;99.90;;;;;;5076003;28;20420;-65
2020/12/23 01:58:48;;;;;;;19.27;14.63;;;12.50;99.90;;;;;;5075900;28;20432;-65
2020/12/23 02:01:20;;;;;;;20.07;13.47;;;12.50;99.90;;;;;;5073307;28;20555;-65
2020/12/23 02:03:47;;;;;;;17.73;13.60;;;12.50;99.90;;;;;;5076044;28;20515;-65
2020/12/23 02:06:13;;;;;;;24.83;13.70;;;12.50;99.90;;;;;;5076556;28;20860;-65
2020/12/23 06:31:00;;;;;;;17.43;12.13;;;13.10;99.90;;;;;;5787882;23;20559;-66
2020/12/23 06:33:25;;;;;;;16.33;12.60;;;13.10;99.90;;;;;;4976517;28;20779;-67
2020/12/23 06:35:51;;;;;;;13.13;10.47;;;13.10;99.90;;;;;;4976361;28;20439;-67
2020/12/23 06:38:21;;;;;;;15.37;11.50;;;13.10;99.90;;;;;;4976350;28;20178;-66
2020/12/23 06:41:00;;;;;;;13.30;9.73;;;13.10;99.90;;;;;;5014661;23;20260;-69
2020/12/23 06:43:54;;;;;;;14.17;9.97;;;13.10;99.90;;;;;;4977535;28;20448;-68
2020/12/23 06:46:19;;;;;;;13.00;10.17;;;13.10;99.90;;;;;;4977266;28;20904;-67
2020/12/23 06:48:45;;;;;;;14.50;9.10;;;13.10;99.90;;;;;;4977451;28;20424;-70
2020/12/23 06:51:10;;;;;;;16.73;11.57;;;13.10;99.90;;;;;;4977411;28;20701;-70
2020/12/23 06:53:36;;;;;;;10.67;8.70;;;13.10;99.90;;;;;;4977251;28;20184;-70
2020/12/23 06:56:02;;;;;;;10.13;7.63;;;13.10;99.90;;;;;;4977117;28;20449;-68
2020/12/23 06:58:37;;;;;;;13.47;6.67;;;13.10;99.90;;;;;;4977233;28;20459;-67
2020/12/23 07:01:19;;;;;;;11.10;7.70;;;13.10;99.90;;;;;;4977196;28;20205;-68
2020/12/23 07:07:44;;;;;;;9.20;7.00;;;13.10;99.90;;;;;;4976920;28;20425;-68
2020/12/23 07:10:24;;;;;;;6.80;6.03;;;13.10;99.90;;;;;;4976737;28;20916;-69
2020/12/23 07:12:56;;;;;;;7.37;6.07;;;13.10;99.90;;;;;;4977555;28;20413;-71
2020/12/23 07:15:23;;;;;;;8.70;6.47;;;13.10;99.90;;;;;;4976717;28;20782;-71
2020/12/23 07:21:12;;;;;;;7.47;6.43;;;13.10;99.90;;;;;;4976482;28;20500;-74
2020/12/23 07:23:40;;;;;;;6.47;5.83;;;13.10;99.90;;;;;;4977030;28;20517;-72
2020/12/23 07:26:07;;;;;;;6.90;5.73;;;13.10;99.90;;;;;;4976672;28;20463;-75
2020/12/23 07:28:37;;;;;;;6.27;5.67;;;13.10;99.90;;;;;;4976535;28;20433;-67
2020/12/23 07:34:28;;;;;;;7.10;5.93;;;13.20;99.90;;;;;;4976601;28;20401;-67
2020/12/23 07:36:57;;;;;;;7.30;6.30;;;13.10;99.90;;;;;;4976300;28;20884;-67
2020/12/23 07:39:22;;;;;;;10.03;6.63;;;13.20;99.90;;;;;;4976499;28;20432;-67
2020/12/23 07:41:54;;;;;;;9.80;7.13;;;13.10;99.90;;;;;;4975987;28;21022;-67
2020/12/23 07:44:21;;;;;;;6.03;5.10;;;13.20;99.90;;;;;;4976518;28;20218;-67
2020/12/23 07:50:08;;;;;;;7.30;6.20;;;13.20;99.90;;;;;;4976146;28;20468;-67
2020/12/23 07:56:07;;;;;;;5.10;4.30;;;13.30;99.90;;;;;;4975968;28;20180;-67
2020/12/23 07:58:36;;;;;;;7.50;4.30;;;13.30;99.90;;;;;;4976011;28;20416;-67
2020/12/23 08:01:06;;;;;;;7.10;4.53;;;13.30;99.90;;;;;;4976047;28;20476;-67
2020/12/23 08:03:33;;;;;;;5.07;4.43;;;13.30;99.90;;;;;;4976059;28;20776;-67
2020/12/23 08:06:12;;;;;;;9.73;4.57;;;13.40;99.90;;;;;;4975964;28;20437;-67
2020/12/23 08:08:41;;;;;;;3.70;3.30;;;13.40;99.90;;;;;;4975699;28;20484;-67
2020/12/23 08:11:11;;;;;;;3.87;3.50;;;13.40;99.90;;;;;;4975886;28;20528;-67
2020/12/23 08:13:38;;;;;;;5.77;3.50;;;13.40;99.90;;;;;;4975944;28;20422;-67
2020/12/23 08:19:25;;;;;;;7.53;3.53;;;13.40;99.90;;;;;;4975477;28;20932;-67
2020/12/23 08:21:50;;;;;;;4.43;3.50;;;13.40;99.90;;;;;;4975644;28;20500;-67
2020/12/23 08:24:16;;;;;;;5.60;4.03;;;13.40;99.90;;;;;;4975719;28;20186;-67
2020/12/23 08:26:42;;;;;;;5.83;4.07;;;13.40;99.90;;;;;;4975674;28;20209;-66
2020/12/23 08:32:35;;;;;;;4.47;3.77;;;13.50;99.90;;;;;;4975328;28;20213;-66
2020/12/23 08:35:02;;;;;;;7.30;3.80;;;13.50;99.90;;;;;;4975326;28;20543;-66
2020/12/23 08:40:52;;;;;;;4.70;3.97;;;13.50;99.90;;;;;;4974900;28;20472;-66
2020/12/23 08:43:31;;;;;;;4.33;3.43;;;13.50;99.90;;;;;;4975070;28;20948;-66
2020/12/23 08:45:58;;;;;;;6.00;3.60;;;13.50;99.90;;;;;;4975287;28;20419;-66
2020/12/23 08:48:25;;;;;;;5.90;3.60;;;13.50;99.90;;;;;;4974944;28;20437;-66
2020/12/23 08:50:57;;;;;;;6.50;4.70;;;13.50;99.90;;;;;;4974493;28;20456;-66
2020/12/23 08:53:29;;;;;;;4.70;3.67;;;13.50;99.90;;;;;;4975145;28;20844;-66
2020/12/23 08:55:54;;;;;;;5.00;4.03;;;13.50;99.90;;;;;;4974937;28;20485;-65
2020/12/23 08:58:20;;;;;;;4.40;3.80;;;13.60;99.90;;;;;;4975180;28;20421;-66
2020/12/23 09:04:10;;;;;;;5.40;3.40;;;13.60;99.90;;;;;;4974785;28;20189;-65
2020/12/23 09:10:11;;;;;;;6.77;3.47;;;13.60;99.90;;;;;;4974712;28;20834;-65
2020/12/23 09:12:37;;;;;;;4.07;2.70;;;13.50;99.90;;;;;;4974929;28;20456;-66
2020/12/23 09:15:12;;;;;;;3.47;3.07;;;13.60;99.90;;;;;;4974630;28;20453;-66
2020/12/23 09:17:37;;;;;;;4.10;3.03;;;13.60;99.90;;;;;;4974763;28;20230;-65
2020/12/23 09:20:04;;;;;;;4.90;3.43;;;13.50;99.90;;;;;;4974678;28;20846;-66
2020/12/23 09:22:36;;;;;;;4.20;3.80;;;13.50;99.90;;;;;;4974795;28;20205;-69
2020/12/23 09:28:27;;;;;;;4.17;2.80;;;13.50;99.90;;;;;;4974576;28;20411;-69
2020/12/23 09:30:59;;;;;;;4.07;2.60;;;13.60;99.90;;;;;;4974810;28;20501;-69
2020/12/23 09:33:25;;;;;;;4.33;3.50;;;13.60;99.90;;;;;;4974291;28;20906;-69
2020/12/23 09:36:05;;;;;;;4.60;2.70;;;13.60;99.90;;;;;;4974609;28;20480;-69
2020/12/23 09:38:34;;;;;;;2.50;2.20;;;13.60;99.90;;;;;;4974512;28;20508;-69
2020/12/23 09:41:01;;;;;;;3.80;3.37;;;13.70;99.90;;;;;;4974248;28;20852;-69
2020/12/23 09:46:49;;;;;;;3.00;2.40;;;13.80;99.90;;;;;;4974215;28;20501;-67
2020/12/23 09:49:14;;;;;;;4.20;2.87;;;13.70;99.90;;;;;;4974571;28;20436;-68
2020/12/23 09:55:03;;;;;;;5.03;2.53;;;13.80;99.90;;;;;;4974325;28;20265;-68
2020/12/23 10:00:52;;;;;;;2.80;2.07;;;13.90;99.90;;;;;;4974233;28;20612;-69
2020/12/23 10:03:18;;;;;;;2.73;2.30;;;14.00;99.90;;;;;;4975268;28;20433;-69
2020/12/23 10:05:43;;;;;;;2.40;2.13;;;14.00;99.90;;;;;;4978065;28;20441;-69
2020/12/23 10:08:09;;;;;;;3.30;1.80;;;14.00;99.90;;;;;;4978037;28;20182;-69
2020/12/23 10:10:38;;;;;;;3.00;1.97;;;14.00;99.90;;;;;;4977815;28;20189;-68
2020/12/23 10:13:04;;;;;;;2.10;1.63;;;14.00;99.90;;;;;;4978078;28;20181;-69
2020/12/23 10:15:29;;;;;;;3.33;1.47;;;13.90;99.90;;;;;;4978086;28;20443;-69
2020/12/23 10:17:55;;;;;;;3.10;1.73;;;14.00;99.90;;;;;;4977644;28;20260;-69
2020/12/23 10:20:21;;;;;;;2.57;1.97;;;14.00;99.90;;;;;;4977999;28;20178;-68
2020/12/23 10:22:46;;;;;;;2.13;1.20;;;14.00;99.90;;;;;;4977924;28;20214;-69
2020/12/23 10:25:12;;;;;;;1.73;1.10;;;14.00;99.90;;;;;;4976718;28;20173;-70
2020/12/23 10:31:03;;;;;;;1.80;1.50;;;14.10;99.90;;;;;;4977590;28;20200;-75
2020/12/23 10:33:28;;;;;;;1.20;0.93;;;14.00;99.90;;;;;;4977431;28;20440;-85
2020/12/23 10:35:54;;;;;;;4.43;1.43;;;14.00;99.90;;;;;;4977701;28;20429;-83
2020/12/23 10:41:42;;;;;;;6.53;2.00;;;14.00;99.90;;;;;;4974702;28;20268;-74
2020/12/23 10:44:08;;;;;;;2.50;1.30;;;14.00;99.90;;;;;;4977545;28;20433;-74
2020/12/23 10:46:33;;;;;;;2.67;1.30;;;13.90;99.90;;;;;;4977435;28;20467;-72
2020/12/23 10:48:59;;;;;;;3.20;1.83;;;14.00;99.90;;;;;;4977409;28;20174;-72
2020/12/23 10:51:24;;;;;;;4.50;1.20;;;14.00;99.90;;;;;;4977079;28;20201;-72
2020/12/23 10:53:50;;;;;;;1.60;1.50;;;14.00;99.90;;;;;;4977304;28;20209;-71
2020/12/23 10:56:16;;;;;;;1.30;1.10;;;14.00;99.90;;;;;;4977286;28;20181;-71
2020/12/23 11:02:03;;;;;;;2.70;1.33;;;14.00;99.90;;;;;;4976860;28;20688;-71
2020/12/23 11:04:28;;;;;;;1.40;1.30;;;14.00;99.90;;;;;;4977282;28;20429;-71
2020/12/23 11:06:54;;;;;;;2.20;1.40;;;14.00;99.90;;;;;;4975672;28;20236;-71
2020/12/23 11:09:20;;;;;;;1.63;1.47;;;14.00;99.90;;;;;;4977016;28;20181;-71
2020/12/23 11:11:53;;;;;;;1.70;1.00;;;14.00;99.90;;;;;;4977136;28;20220;-71
2020/12/23 11:17:40;;;;;;;4.23;1.60;;;14.00;99.90;;;;;;4976820;28;20408;-76
2020/12/23 11:23:28;;;;;;;1.97;1.43;;;14.40;99.90;;;;;;4976688;28;20200;-80
2020/12/23 11:25:55;;;;;;;4.17;2.00;;;14.70;99.90;;;;;;4976828;28;20528;-74
2020/12/23 11:28:20;;;;;;;2.07;1.20;;;14.80;99.90;;;;;;4976853;28;20561;-75
2020/12/23 11:30:47;;;;;;;5.00;1.63;;;14.90;99.90;;;;;;4976478;28;20429;-75
2020/12/23 11:33:13;;;;;;;3.60;1.37;;;15.10;99.90;;;;;;4976449;28;20209;-72
2020/12/23 11:39:00;;;;;;;2.60;1.27;;;15.20;99.90;;;;;;4975886;28;20420;-74
2020/12/23 11:41:27;;;;;;;2.40;1.30;;;15.20;99.90;;;;;;4975875;28;20902;-74
2020/12/23 11:43:52;;;;;;;1.57;1.17;;;15.00;99.90;;;;;;4976273;28;20541;-75
2020/12/23 11:46:18;;;;;;;2.67;1.20;;;15.00;99.90;;;;;;4976319;28;20429;-74
2020/12/23 11:48:43;;;;;;;1.83;1.20;;;14.90;99.90;;;;;;4975949;28;20653;-74
2020/12/23 11:51:09;;;;;;;1.43;1.20;;;14.80;99.90;;;;;;4976058;28;20186;-75
2020/12/23 11:53:37;;;;;;;3.33;1.20;;;14.70;99.90;;;;;;4976227;28;20185;-75
2020/12/23 11:56:03;;;;;;;1.00;0.90;;;14.70;99.90;;;;;;4976163;28;20332;-75
2020/12/23 11:58:29;;;;;;;2.13;1.40;;;14.60;99.90;;;;;;4975797;28;20948;-76
2020/12/23 12:00:55;;;;;;;2.33;1.37;;;14.60;99.90;;;;;;4975998;28;20476;-75
2020/12/23 12:03:21;;;;;;;1.30;1.07;;;14.50;99.90;;;;;;4975787;28;20422;-75
2020/12/23 12:05:47;;;;;;;1.07;0.87;;;14.30;99.90;;;;;;4975970;28;20252;-75
2020/12/23 12:11:34;;;;;;;2.03;1.33;;;14.40;99.90;;;;;;4975673;28;20241;-76
2020/12/23 12:14:00;;;;;;;1.53;1.20;;;14.30;99.90;;;;;;4975882;28;20972;-76
2020/12/23 12:16:25;;;;;;;1.30;1.00;;;14.30;99.90;;;;;;4975861;28;20531;-76
2020/12/23 12:18:51;;;;;;;2.63;1.47;;;14.30;99.90;;;;;;4975588;28;20177;-75
2020/12/23 12:21:17;;;;;;;4.20;1.20;;;14.20;99.90;;;;;;4975653;28;20206;-75
2020/12/23 12:23:42;;;;;;;1.23;0.90;;;14.20;99.90;;;;;;4975714;28;20178;-75
2020/12/23 12:26:08;;;;;;;2.47;1.30;;;14.30;99.90;;;;;;4975052;28;20181;-75
2020/12/23 12:28:33;;;;;;;5.07;1.37;;;14.20;99.90;;;;;;4975620;28;20178;-75
2020/12/23 12:30:59;;;;;;;1.77;1.00;;;14.20;99.90;;;;;;4975514;28;20327;-75
2020/12/23 12:33:24;;;;;;;2.47;1.10;;;14.10;99.90;;;;;;4975520;28;20248;-75
2020/12/23 12:35:50;;;;;;;1.97;1.50;;;14.10;99.90;;;;;;4975407;28;20248;-75
2020/12/23 12:38:15;;;;;;;1.50;1.20;;;14.20;99.90;;;;;;4975444;28;20209;-74
2020/12/23 12:40:41;;;;;;;5.33;1.33;;;14.20;99.90;;;;;;4974697;28;20209;-74
2020/12/23 12:43:07;;;;;;;2.03;1.30;;;14.20;99.90;;;;;;4975089;28;20229;-74
2020/12/23 12:45:33;;;;;;;1.00;0.90;;;14.10;99.90;;;;;;4975363;28;20185;-76
2020/12/23 12:47:58;;;;;;;2.13;1.03;;;14.20;99.90;;;;;;4975288;28;20222;-75
2020/12/23 12:50:24;;;;;;;1.50;1.20;;;14.00;99.90;;;;;;4974876;28;20437;-75
2020/12/23 12:52:50;;;;;;;1.40;1.20;;;13.90;99.90;;;;;;4975208;28;20174;-73
2020/12/23 12:55:15;;;;;;;1.13;0.93;;;13.90;99.90;;;;;;4975455;28;20212;-74
2020/12/23 12:57:43;;;;;;;1.20;1.00;;;14.00;99.90;;;;;;4974830;28;20177;-76
2020/12/23 13:00:09;;;;;;;2.17;1.40;;;14.10;99.90;;;;;;4973747;28;20660;-75
2020/12/23 13:02:35;;;;;;;2.50;1.50;;;14.00;99.90;;;;;;4974993;28;20560;-77
2020/12/23 13:08:22;;;;;;;1.43;1.30;;;14.00;99.90;;;;;;4974764;28;20261;-74
2020/12/23 13:10:48;;;;;;;1.73;1.10;;;13.90;99.90;;;;;;4974676;28;20512;-76
2020/12/23 13:16:35;;;;;;;1.50;1.10;;;13.80;99.90;;;;;;4974662;28;20312;-71
2020/12/23 13:19:01;;;;;;;1.70;1.60;;;13.80;99.90;;;;;;4974901;28;20460;-75
2020/12/23 13:24:48;;;;;;;3.60;1.80;;;13.70;99.90;;;;;;4974521;28;20712;-75
2020/12/23 13:27:14;;;;;;;1.63;1.20;;;13.70;99.90;;;;;;4974801;28;20417;-75
2020/12/23 13:29:39;;;;;;;4.43;1.20;;;13.60;99.90;;;;;;4975584;28;20169;-75
2020/12/23 13:32:05;;;;;;;2.77;1.20;;;13.70;99.90;;;;;;4974528;28;20170;-75
2020/12/23 13:34:30;;;;;;;2.03;1.40;;;13.60;99.90;;;;;;4974416;28;20177;-76
2020/12/23 13:36:56;;;;;;;1.50;1.10;;;13.70;99.90;;;;;;4975299;28;20173;-75
2020/12/23 13:39:22;;;;;;;1.10;0.90;;;13.60;99.90;;;;;;4978687;28;20173;-75
2020/12/23 13:45:09;;;;;;;3.23;1.20;;;13.50;99.90;;;;;;4978384;28;20656;-75
2020/12/23 13:47:34;;;;;;;4.70;1.50;;;13.50;99.90;;;;;;4978263;28;20449;-75
2020/12/23 13:53:22;;;;;;;2.17;1.20;;;13.50;99.90;;;;;;4978160;28;20212;-76
2020/12/23 13:55:47;;;;;;;1.40;1.20;;;13.40;99.90;;;;;;4978355;28;20819;-76
2020/12/23 13:58:13;;;;;;;1.30;1.00;;;13.30;99.90;;;;;;4978274;28;20173;-76
2020/12/23 14:00:39;;;;;;;1.57;1.20;;;13.30;99.90;;;;;;4978033;28;20174;-75
2020/12/23 14:03:04;;;;;;;1.73;1.10;;;13.30;99.90;;;;;;4977857;28;20248;-76
2020/12/23 14:05:30;;;;;;;1.60;1.20;;;13.20;99.90;;;;;;4977772;28;20417;-76
2020/12/23 14:11:18;;;;;;;4.50;1.53;;;13.30;99.90;;;;;;4977843;28;20208;-77
2020/12/23 14:13:43;;;;;;;2.27;1.87;;;13.30;99.90;;;;;;4977841;28;20421;-75
2020/12/23 14:16:09;;;;;;;3.37;1.63;;;13.30;99.90;;;;;;4978050;28;20193;-76
2020/12/23 14:21:56;;;;;;;2.73;2.10;;;13.30;99.90;;;;;;4977791;28;20244;-82
2020/12/23 14:24:22;;;;;;;1.77;1.60;;;13.30;99.90;;;;;;4977884;28;20943;-77
2020/12/23 14:30:09;;;;;;;6.30;1.77;;;13.40;99.90;;;;;;4977843;28;20189;-81
2020/12/23 14:32:35;;;;;;;3.90;1.63;;;13.50;99.90;;;;;;4977750;28;20429;-80
2020/12/23 14:35:00;;;;;;;1.77;1.40;;;13.40;99.90;;;;;;4977493;28;20546;-77
2020/12/23 14:40:48;;;;;;;2.50;1.67;;;13.30;99.90;;;;;;4977109;28;20241;-79
2020/12/23 14:46:35;;;;;;;4.10;2.10;;;13.30;99.90;;;;;;4977310;28;20233;-75
2020/12/23 14:49:01;;;;;;;3.43;2.30;;;13.30;99.90;;;;;;4976755;28;20949;-76
2020/12/23 14:51:26;;;;;;;6.83;2.10;;;13.30;99.90;;;;;;4977017;28;20177;-76
2020/12/23 14:57:14;;;;;;;2.47;1.90;;;13.20;99.90;;;;;;4977023;28;20234;-76
2020/12/23 14:59:39;;;;;;;4.37;1.73;;;13.20;99.90;;;;;;4977229;28;20425;-76
2020/12/23 15:02:08;;;;;;;2.93;1.87;;;13.20;99.90;;;;;;4976997;28;20220;-76
2020/12/23 15:04:33;;;;;;;2.93;1.93;;;13.30;99.90;;;;;;4977269;28;20632;-76
2020/12/23 15:06:59;;;;;;;3.53;2.20;;;13.20;99.90;;;;;;4977225;28;20536;-76
2020/12/23 15:09:25;;;;;;;4.03;2.17;;;13.20;99.90;;;;;;4976794;28;20170;-76
2020/12/23 15:15:12;;;;;;;3.53;2.27;;;13.20;99.90;;;;;;4976798;28;20168;-76
2020/12/23 15:17:38;;;;;;;4.40;2.70;;;13.20;99.90;;;;;;4976912;28;20853;-76
2020/12/23 15:20:03;;;;;;;3.43;2.67;;;13.20;99.90;;;;;;4976858;28;20637;-76
2020/12/23 15:22:29;;;;;;;4.37;2.50;;;13.20;99.90;;;;;;4976442;28;20669;-76
2020/12/23 15:24:54;;;;;;;3.10;2.57;;;13.30;99.90;;;;;;4976780;28;20217;-74
2020/12/23 15:27:20;;;;;;;4.00;2.60;;;13.20;99.90;;;;;;4975963;28;20899;-75
2020/12/23 15:29:45;;;;;;;2.77;2.40;;;13.30;99.90;;;;;;4976453;28;20216;-74
2020/12/23 15:32:11;;;;;;;3.93;3.53;;;13.20;99.90;;;;;;4976668;28;20181;-78
2020/12/23 15:34:37;;;;;;;4.33;3.13;;;13.20;99.90;;;;;;4976631;28;20189;-73
2020/12/23 15:40:24;;;;;;;5.80;3.30;;;13.20;99.90;;;;;;4976352;28;20205;-75
2020/12/23 15:42:50;;;;;;;3.30;3.00;;;13.20;99.90;;;;;;4976012;28;20493;-75
2020/12/23 15:45:15;;;;;;;3.70;2.93;;;13.20;99.90;;;;;;4976454;28;20216;-76
2020/12/23 15:47:41;;;;;;;3.80;2.57;;;13.20;99.90;;;;;;4976319;28;20181;-76
2020/12/23 15:50:06;;;;;;;3.37;3.07;;;13.20;99.90;;;;;;4976361;28;20576;-75
2020/12/23 15:55:54;;;;;;;4.90;1.97;;;13.20;99.90;;;;;;4976351;28;20643;-76
2020/12/23 16:01:42;;;;;;;2.47;2.20;;;13.20;99.90;;;;;;4974855;28;20264;-76
2020/12/23 16:07:29;;;;;;;3.63;1.77;;;13.20;99.90;;;;;;4975850;28;20628;-75
2020/12/23 16:09:55;;;;;;;3.43;1.50;;;13.10;99.90;;;;;;4975565;28;20429;-76
2020/12/23 16:12:21;;;;;;;1.90;1.40;;;13.30;99.90;;;;;;4975715;28;20170;-76
2020/12/23 16:14:46;;;;;;;2.07;1.40;;;13.20;99.90;;;;;;4975442;28;20181;-76
2020/12/23 16:17:12;;;;;;;3.43;1.40;;;13.10;99.90;;;;;;4975940;28;20170;-77
2020/12/23 16:19:37;;;;;;;5.40;1.50;;;13.20;99.90;;;;;;4975472;28;20177;-79
2020/12/23 16:25:25;;;;;;;2.60;1.23;;;13.20;99.90;;;;;;4975428;28;20583;-76
2020/12/23 16:31:12;;;;;;;2.33;1.50;;;13.10;99.90;;;;;;4975330;28;20193;-77
2020/12/23 16:33:38;;;;;;;1.67;1.50;;;13.20;99.90;;;;;;4975704;28;20433;-83
2020/12/23 16:36:04;;;;;;;2.40;1.30;;;13.20;99.90;;;;;;4975496;28;20264;-80
2020/12/23 16:38:29;;;;;;;1.97;1.30;;;13.20;99.90;;;;;;4975558;28;20189;-75
2020/12/23 16:40:55;;;;;;;2.20;1.43;;;13.20;99.90;;;;;;4974954;28;20233;-76
2020/12/23 16:46:42;;;;;;;1.37;1.17;;;13.20;99.90;;;;;;4975019;28;20201;-77
2020/12/23 16:49:08;;;;;;;2.20;1.47;;;13.30;99.90;;;;;;4975271;28;20413;-77
2020/12/23 16:51:33;;;;;;;2.17;1.20;;;13.30;99.90;;;;;;4975009;28;20629;-79
2020/12/23 16:57:29;;;;;;;1.97;1.40;;;13.30;99.90;;;;;;4975255;28;20216;-72
2020/12/23 17:03:16;;;;;;;2.70;1.63;;;13.30;99.90;;;;;;4974882;28;20485;-73
2020/12/23 17:05:42;;;;;;;2.97;1.63;;;13.30;99.90;;;;;;4975022;28;20425;-73
2020/12/23 17:08:07;;;;;;;1.93;1.60;;;13.20;99.90;;;;;;4974994;28;20189;-75
2020/12/23 17:10:33;;;;;;;3.70;1.80;;;13.10;99.90;;;;;;4974860;28;20178;-74
2020/12/23 17:16:21;;;;;;;2.43;1.30;;;13.10;99.90;;;;;;4974516;28;20254;-77
2020/12/23 17:22:10;;;;;;;2.73;2.07;;;13.10;99.90;;;;;;4974590;28;20208;-74
2020/12/23 17:24:38;;;;;;;2.07;1.83;;;13.10;99.90;;;;;;4974509;28;20436;-76
2020/12/23 17:30:26;;;;;;;3.40;2.47;;;13.10;99.90;;;;;;4974540;28;20573;-73
2020/12/23 17:36:19;;;;;;;3.80;2.37;;;13.10;99.90;;;;;;4974514;28;20217;-73
2020/12/23 17:42:06;;;;;;;4.17;2.70;;;13.10;99.90;;;;;;4971118;28;20527;-73
2020/12/23 17:47:54;;;;;;;4.53;3.47;;;13.10;99.90;;;;;;4974427;28;20188;-72
2020/12/23 17:53:42;;;;;;;5.07;3.37;;;13.10;99.90;;;;;;4974428;28;20177;-80
2020/12/23 17:56:10;;;;;;;4.03;3.57;;;13.10;99.90;;;;;;4974347;28;20833;-73
2020/12/23 17:58:38;;;;;;;4.13;3.17;;;13.10;99.90;;;;;;4974266;28;20170;-74
2020/12/23 18:01:04;;;;;;;5.20;3.50;;;13.10;99.90;;;;;;4974129;28;20452;-74
2020/12/23 18:03:30;;;;;;;5.43;3.03;;;13.00;99.90;;;;;;4974138;28;20443;-73
2020/12/23 18:06:03;;;;;;;6.00;3.13;;;13.10;99.90;;;;;;4974386;28;20192;-73
2020/12/23 18:08:29;;;;;;;3.30;2.40;;;13.00;99.90;;;;;;4974240;28;20270;-73
2020/12/23 18:10:56;;;;;;;3.27;2.97;;;13.10;99.90;;;;;;4974081;28;20436;-71
2020/12/23 18:13:21;;;;;;;3.87;3.10;;;13.10;99.90;;;;;;4974461;28;20209;-71
2020/12/23 18:15:47;;;;;;;6.13;2.20;;;13.00;99.90;;;;;;4974067;28;20463;-82
2020/12/23 18:21:35;;;;;;;3.63;2.30;;;13.10;99.90;;;;;;4974072;28;20606;-69
2020/12/23 18:24:00;;;;;;;2.43;2.20;;;13.10;99.90;;;;;;4974753;28;20508;-72
2020/12/23 18:26:26;;;;;;;2.70;2.37;;;13.10;99.90;;;;;;4977961;28;20200;-73
2020/12/23 18:28:52;;;;;;;4.60;2.77;;;13.10;99.90;;;;;;4977856;28;20573;-74
2020/12/23 18:31:18;;;;;;;1.80;1.60;;;13.10;99.90;;;;;;4977898;28;20189;-73
2020/12/23 18:33:44;;;;;;;2.43;1.60;;;13.10;99.90;;;;;;4977863;28;20425;-70
2020/12/23 18:36:15;;;;;;;3.10;1.83;;;13.20;99.90;;;;;;4977475;28;20181;-70
2020/12/23 18:38:41;;;;;;;2.53;1.40;;;13.20;99.90;;;;;;4977771;28;20435;-75
2020/12/23 18:41:07;;;;;;;1.77;1.43;;;13.30;99.90;;;;;;4977264;28;21071;-67
2020/12/23 18:43:36;;;;;;;2.20;1.97;;;13.20;99.90;;;;;;4977621;28;20232;-69
2020/12/23 18:46:02;;;;;;;1.93;1.50;;;13.10;99.90;;;;;;4977518;28;20771;-69
2020/12/23 18:48:27;;;;;;;2.63;1.80;;;13.20;99.90;;;;;;4977148;28;20433;-68
2020/12/23 18:54:14;;;;;;;4.00;1.73;;;13.20;99.90;;;;;;4977177;28;20186;-68
2020/12/23 18:56:40;;;;;;;3.70;1.87;;;13.30;99.90;;;;;;4977154;28;20429;-67
2020/12/23 19:02:27;;;;;;;2.40;1.97;;;13.20;99.90;;;;;;4977096;28;20212;-82
2020/12/23 19:04:53;;;;;;;1.80;1.60;;;13.20;99.90;;;;;;4977400;28;20921;-83
2020/12/23 19:07:18;;;;;;;2.43;2.00;;;13.20;99.90;;;;;;4976932;28;20181;-83
2020/12/23 19:09:44;;;;;;;2.57;2.07;;;13.30;99.90;;;;;;4977280;28;20169;-68
2020/12/23 19:15:32;;;;;;;4.60;2.33;;;13.30;99.90;;;;;;4977365;28;20185;-81
2020/12/23 19:17:58;;;;;;;2.20;2.00;;;13.40;99.90;;;;;;4978980;28;20417;-71
2020/12/23 19:23:46;;;;;;;3.13;1.87;;;13.40;99.90;;;;;;4976599;28;20477;-69
2020/12/23 19:26:11;;;;;;;3.60;2.10;;;13.30;99.90;;;;;;4976748;28;20421;-69
2020/12/23 19:31:58;;;;;;;2.50;2.30;;;13.40;99.90;;;;;;4976490;28;20165;-70
2020/12/23 19:37:47;;;;;;;2.80;2.00;;;13.40;99.90;;;;;;4976414;28;20552;-79
2020/12/23 19:43:34;;;;;;;2.10;1.90;;;13.30;99.90;;;;;;4964826;28;20564;-74
2020/12/23 19:49:21;;;;;;;4.37;2.37;;;13.40;99.90;;;;;;4976339;28;20545;-69
2020/12/23 19:51:50;;;;;;;2.00;1.80;;;13.30;99.90;;;;;;4976453;28;20437;-68
2020/12/23 19:54:16;;;;;;;5.33;2.40;;;13.40;99.90;;;;;;4976231;28;20242;-68
2020/12/23 19:56:42;;;;;;;3.83;2.00;;;13.50;99.90;;;;;;4976306;28;20433;-68
2020/12/23 19:59:07;;;;;;;2.73;2.10;;;13.40;99.90;;;;;;4976343;28;20429;-68
2020/12/23 20:01:33;;;;;;;3.70;2.20;;;13.40;99.90;;;;;;4976182;28;20254;-68
2020/12/23 20:03:58;;;;;;;2.57;2.17;;;13.50;99.90;;;;;;4975864;28;20174;-68
2020/12/23 20:06:25;;;;;;;5.30;2.87;;;13.50;99.90;;;;;;4975867;28;20174;-68
2020/12/23 20:08:51;;;;;;;3.50;2.23;;;13.50;99.90;;;;;;4975880;28;20661;-68
2020/12/23 20:11:23;;;;;;;2.50;2.30;;;13.50;99.90;;;;;;4976127;28;20433;-68
2020/12/23 20:13:50;;;;;;;10.73;2.40;;;13.50;99.90;;;;;;4976035;28;20843;-68
2020/12/23 20:16:16;;;;;;;4.60;2.50;;;13.50;99.90;;;;;;4976066;28;20624;-68
2020/12/23 20:22:03;;;;;;;2.40;2.10;;;13.40;99.90;;;;;;4975592;28;20216;-68